Rogers Park, Illinois
Current Conditions -  °F | °C
As of 2:27 AM on Saturday 25 Oct 2014 (Local Time) from KORD Reporting Station
Broken Clouds Broken Clouds  
Wind Chill: 57°   Ceiling: 1500
Heat Index: 57°   Visibility: 10mi
Dew Point: 50°   Wind: 7mph
Humidity: 77%   Direction: 240°WSW
Pressure: 29.89"   Gusts: NA
Location:  41.991°N, 87.6654°W
Report Text: KORD 250727Z 24006KT 10SM BKN015 14/10 A2989 RMK AO2 T01390100
Loading
Personal Weather Stations






























Interactive Weather Map New forecast layout! Learn more

10-Day Weather Forecast

Advertisements
Track Severe Weather on mobile